Time;durP1;ratioP1;P1;durP2;ratioP2;P2;SDS_P1;SDS_P2;PMS_P1;PMS_P2;Temp;Humidity;BMP_temperature;BMP_pressure;BME280_temperature;BME280_humidity;BME280_pressure;Samples;Min_cycle;Max_cycle;Signal;HPM_P1;HPM_P2
2024/03/19 00:02:18;;;;;;;69.47;34.13;;;5.70;99.90;;;;;;5073110;28;20482;-68
2024/03/19 00:04:44;;;;;;;79.75;35.38;;;5.70;99.90;;;;;;5072820;28;20025;-68
2024/03/19 00:07:10;;;;;;;81.10;36.75;;;5.70;99.90;;;;;;5072980;28;20432;-68
2024/03/19 00:09:36;;;;;;;76.25;35.75;;;5.80;99.90;;;;;;5072934;28;20029;-68
2024/03/19 00:12:01;;;;;;;82.18;35.83;;;5.80;99.90;;;;;;5073019;28;20024;-68
2024/03/19 00:14:27;;;;;;;97.85;40.03;;;5.80;99.90;;;;;;5072723;28;20146;-67
2024/03/19 00:16:52;;;;;;;87.05;37.35;;;5.80;99.90;;;;;;5072724;28;20089;-67
2024/03/19 00:19:18;;;;;;;83.20;37.67;;;5.90;99.90;;;;;;5072685;28;20161;-68
2024/03/19 00:21:44;;;;;;;93.30;38.22;;;6.00;99.90;;;;;;5073217;28;20918;-67
2024/03/19 00:24:09;;;;;;;82.20;37.50;;;6.00;99.90;;;;;;5076181;28;20032;-68
2024/03/19 00:26:36;;;;;;;81.90;35.53;;;6.00;99.90;;;;;;5076654;28;20053;-67
2024/03/19 00:29:02;;;;;;;77.70;36.08;;;6.00;99.90;;;;;;5076609;28;20094;-67
2024/03/19 00:31:27;;;;;;;89.45;38.35;;;6.00;99.90;;;;;;5076087;28;20421;-67
2024/03/19 00:33:53;;;;;;;82.15;35.67;;;6.00;99.90;;;;;;5076354;28;20112;-67
2024/03/19 00:36:20;;;;;;;78.40;36.45;;;6.00;99.90;;;;;;5076232;28;20036;-67
2024/03/19 00:38:45;;;;;;;78.78;34.25;;;6.00;99.90;;;;;;5076282;28;20035;-67
2024/03/19 00:41:11;;;;;;;81.07;36.35;;;6.00;99.90;;;;;;5076140;28;20400;-67
2024/03/19 00:43:36;;;;;;;81.40;36.28;;;6.00;99.90;;;;;;5075802;28;20033;-67
2024/03/19 00:46:03;;;;;;;79.30;31.55;;;6.00;99.90;;;;;;5076069;28;20020;-67
2024/03/19 00:48:29;;;;;;;71.13;31.25;;;6.00;99.90;;;;;;5076072;28;20024;-67
2024/03/19 00:50:55;;;;;;;72.07;31.58;;;6.00;99.90;;;;;;5076231;28;20043;-67
2024/03/19 00:53:20;;;;;;;73.47;33.30;;;6.00;99.90;;;;;;5075892;28;20479;-67
2024/03/19 00:55:46;;;;;;;97.10;34.03;;;6.00;99.90;;;;;;5076010;28;20126;-67
2024/03/19 00:58:12;;;;;;;96.63;35.53;;;6.00;99.90;;;;;;5075783;28;20028;-67
2024/03/19 01:00:39;;;;;;;78.35;32.30;;;6.00;99.90;;;;;;5075750;28;20047;-67
2024/03/19 01:03:04;;;;;;;75.30;32.50;;;6.00;99.90;;;;;;5074372;28;20402;-67
2024/03/19 01:05:30;;;;;;;74.40;32.45;;;6.00;99.90;;;;;;5075673;28;20027;-67
2024/03/19 01:07:56;;;;;;;66.60;28.98;;;6.00;99.90;;;;;;5075729;28;20031;-67
2024/03/19 01:10:21;;;;;;;80.65;32.90;;;6.00;99.90;;;;;;5075847;28;20020;-67
2024/03/19 01:12:47;;;;;;;87.97;36.40;;;6.00;99.90;;;;;;5075818;28;20382;-67
2024/03/19 01:15:12;;;;;;;80.43;33.85;;;6.00;99.90;;;;;;5075512;28;20021;-67
2024/03/19 01:17:39;;;;;;;72.15;32.42;;;6.00;99.90;;;;;;5075718;28;20028;-67
2024/03/19 01:20:13;;;;;;;72.47;31.58;;;6.00;99.90;;;;;;5075334;28;20012;-67
2024/03/19 01:22:39;;;;;;;78.82;31.38;;;6.10;99.90;;;;;;5075100;28;20118;-67
2024/03/19 01:25:06;;;;;;;83.80;33.05;;;6.10;99.90;;;;;;5075460;28;20474;-67
2024/03/19 01:27:33;;;;;;;76.10;31.17;;;6.10;99.90;;;;;;5075538;28;20474;-67
2024/03/19 01:29:59;;;;;;;72.15;31.60;;;6.20;99.90;;;;;;5075283;28;20017;-67
2024/03/19 01:32:25;;;;;;;92.30;37.95;;;6.20;99.90;;;;;;5073589;28;20024;-67
2024/03/19 01:34:50;;;;;;;89.75;38.95;;;6.20;99.90;;;;;;5075134;28;20024;-67
2024/03/19 01:37:16;;;;;;;77.60;33.85;;;6.20;99.90;;;;;;5075451;28;20626;-67
2024/03/19 01:39:41;;;;;;;90.65;37.03;;;6.30;99.90;;;;;;5075019;28;20025;-67
2024/03/19 01:42:07;;;;;;;81.38;35.15;;;6.30;99.90;;;;;;5075184;28;20517;-67
2024/03/19 01:44:33;;;;;;;85.03;35.63;;;6.30;99.90;;;;;;5074872;28;20025;-67
2024/03/19 01:46:58;;;;;;;82.53;34.95;;;6.30;99.90;;;;;;5074996;28;20423;-67
2024/03/19 01:49:25;;;;;;;88.90;36.10;;;6.30;99.90;;;;;;5074934;28;20024;-67
2024/03/19 01:51:53;;;;;;;84.05;33.78;;;6.30;99.90;;;;;;5075067;28;20056;-67
2024/03/19 01:54:18;;;;;;;79.95;34.47;;;6.30;99.90;;;;;;5074852;28;20561;-67
2024/03/19 01:56:44;;;;;;;88.97;36.38;;;6.30;99.90;;;;;;5074720;28;20028;-67
2024/03/19 01:59:10;;;;;;;82.47;34.63;;;6.30;99.90;;;;;;5074664;28;20461;-67
2024/03/19 02:01:36;;;;;;;81.68;34.45;;;6.30;99.90;;;;;;5074844;28;20059;-68
2024/03/19 02:04:02;;;;;;;73.95;34.33;;;6.30;99.90;;;;;;5074559;28;20033;-67
2024/03/19 02:06:28;;;;;;;78.28;33.88;;;6.30;99.90;;;;;;5074741;28;20432;-67
2024/03/19 02:09:09;;;;;;;84.05;37.42;;;6.30;99.90;;;;;;5074597;28;20102;-67
2024/03/19 02:11:36;;;;;;;79.90;36.28;;;6.30;99.90;;;;;;5074463;28;20053;-67
2024/03/19 02:14:04;;;;;;;85.10;37.05;;;6.30;99.90;;;;;;5074602;28;20028;-68
2024/03/19 02:16:30;;;;;;;86.13;37.90;;;6.30;99.90;;;;;;5073158;28;20035;-68
2024/03/19 02:18:58;;;;;;;95.70;40.72;;;6.40;99.90;;;;;;5074329;28;20503;-68
2024/03/19 02:21:25;;;;;;;98.60;41.38;;;6.40;99.90;;;;;;5074292;28;20390;-68
2024/03/19 02:23:52;;;;;;;92.53;38.83;;;6.40;99.90;;;;;;5074315;28;20500;-68
2024/03/19 02:26:18;;;;;;;95.22;40.83;;;6.40;99.90;;;;;;5074272;28;20025;-68
2024/03/19 02:28:43;;;;;;;95.43;39.53;;;6.40;99.90;;;;;;5074090;28;20372;-68
2024/03/19 02:31:09;;;;;;;92.63;40.30;;;6.30;99.90;;;;;;5074195;28;20032;-68
2024/03/19 02:33:34;;;;;;;104.95;41.53;;;6.30;99.90;;;;;;5074035;28;20028;-68
2024/03/19 02:36:00;;;;;;;81.57;36.47;;;6.20;99.90;;;;;;5073982;28;20044;-68
2024/03/19 02:38:27;;;;;;;79.10;34.42;;;6.20;99.90;;;;;;5073955;28;20036;-68
2024/03/19 02:40:52;;;;;;;85.70;38.95;;;6.10;99.90;;;;;;5073928;28;20032;-68
2024/03/19 02:43:19;;;;;;;74.68;33.63;;;6.10;99.90;;;;;;5073870;28;20552;-68
2024/03/19 02:45:44;;;;;;;79.95;36.33;;;6.00;99.90;;;;;;5073019;28;20063;-68
2024/03/19 02:48:12;;;;;;;88.60;37.25;;;5.90;99.90;;;;;;5073863;28;20529;-68
2024/03/19 02:50:38;;;;;;;79.45;36.13;;;5.90;99.90;;;;;;5073840;28;20046;-68
2024/03/19 02:53:03;;;;;;;88.45;37.88;;;5.90;99.90;;;;;;5072488;28;20099;-68
2024/03/19 02:55:29;;;;;;;90.00;38.00;;;6.00;99.90;;;;;;5073743;28;20025;-68
2024/03/19 02:57:56;;;;;;;86.68;39.15;;;6.10;99.90;;;;;;5073598;28;20391;-68
2024/03/19 03:00:21;;;;;;;80.65;34.78;;;6.10;99.90;;;;;;5073843;28;20024;-68
2024/03/19 03:02:47;;;;;;;91.78;39.50;;;6.10;99.90;;;;;;5073912;28;20031;-68
2024/03/19 03:05:12;;;;;;;87.90;38.60;;;6.00;99.90;;;;;;5073390;28;20029;-68
2024/03/19 03:07:38;;;;;;;88.20;37.65;;;5.90;99.90;;;;;;5073446;28;20115;-67
2024/03/19 03:10:04;;;;;;;88.70;36.95;;;5.90;99.90;;;;;;5073445;28;20024;-67
2024/03/19 03:12:29;;;;;;;83.97;35.30;;;5.80;99.90;;;;;;5073519;28;20032;-67
2024/03/19 03:14:55;;;;;;;84.63;36.33;;;5.80;99.90;;;;;;5073563;28;20111;-67
2024/03/19 03:17:20;;;;;;;87.28;37.13;;;5.80;99.90;;;;;;5073376;28;20457;-67
2024/03/19 03:19:46;;;;;;;99.63;38.80;;;5.80;99.90;;;;;;5073227;28;20025;-66
2024/03/19 03:22:12;;;;;;;85.75;35.65;;;5.80;99.90;;;;;;5073217;28;20135;-67
2024/03/19 03:24:38;;;;;;;88.32;36.28;;;5.80;99.90;;;;;;5073398;28;20103;-67
2024/03/19 03:27:05;;;;;;;88.47;37.33;;;5.80;99.90;;;;;;5073261;28;20471;-67
2024/03/19 03:29:30;;;;;;;103.70;39.33;;;5.80;99.90;;;;;;5073228;28;20032;-66
2024/03/19 03:31:56;;;;;;;97.93;39.08;;;6.00;99.90;;;;;;5073226;28;20031;-67
2024/03/19 03:34:21;;;;;;;91.85;35.88;;;6.00;99.90;;;;;;5073244;28;20028;-67
2024/03/19 03:36:47;;;;;;;89.93;37.95;;;6.00;99.90;;;;;;5073119;28;20391;-67
2024/03/19 03:39:13;;;;;;;97.68;36.90;;;6.10;99.90;;;;;;5073271;28;20390;-67
2024/03/19 03:41:39;;;;;;;85.25;34.92;;;6.10;99.90;;;;;;5071843;28;20027;-67
2024/03/19 03:44:06;;;;;;;93.40;38.17;;;6.10;99.90;;;;;;5073003;28;20543;-66
2024/03/19 03:46:31;;;;;;;100.25;38.90;;;6.10;99.90;;;;;;5073035;28;20504;-66
2024/03/19 03:48:57;;;;;;;105.55;39.15;;;6.10;99.90;;;;;;5073026;28;20020;-67
2024/03/19 03:51:22;;;;;;;110.25;40.15;;;6.20;99.90;;;;;;5072910;28;20029;-66
2024/03/19 03:53:48;;;;;;;93.57;37.53;;;6.20;99.90;;;;;;5072912;28;20432;-66
2024/03/19 03:56:13;;;;;;;101.18;38.30;;;6.20;99.90;;;;;;5074703;28;20442;-66
2024/03/19 03:58:39;;;;;;;97.90;37.95;;;6.10;99.90;;;;;;5077032;28;20389;-67
2024/03/19 04:01:08;;;;;;;114.13;39.05;;;6.20;99.90;;;;;;5076846;28;20056;-66
2024/03/19 04:03:34;;;;;;;102.32;38.03;;;6.20;99.90;;;;;;5076846;28;20032;-66
2024/03/19 04:06:00;;;;;;;105.38;39.50;;;6.30;99.90;;;;;;5076852;28;20103;-66
2024/03/19 04:08:26;;;;;;;106.72;40.38;;;6.40;99.90;;;;;;5076897;28;20556;-66
2024/03/19 04:10:51;;;;;;;107.22;39.97;;;6.40;99.90;;;;;;5076892;28;20052;-66
2024/03/19 04:13:17;;;;;;;108.88;41.58;;;6.40;99.90;;;;;;5076959;28;20040;-66
2024/03/19 04:15:42;;;;;;;111.10;41.03;;;6.50;99.90;;;;;;5076650;28;20397;-66
2024/03/19 04:18:08;;;;;;;115.93;40.40;;;6.50;99.90;;;;;;5076623;28;20028;-67
2024/03/19 04:20:34;;;;;;;118.45;41.13;;;6.50;99.90;;;;;;5076639;28;20032;-67
2024/03/19 04:22:59;;;;;;;114.20;39.45;;;6.50;99.90;;;;;;5076304;28;20056;-67
2024/03/19 04:25:27;;;;;;;105.82;38.55;;;6.50;99.90;;;;;;5076450;28;20028;-67
2024/03/19 04:27:52;;;;;;;102.35;38.05;;;6.60;99.90;;;;;;5076630;28;20100;-67
2024/03/19 04:30:18;;;;;;;104.03;38.42;;;6.60;99.90;;;;;;5076480;28;20112;-68
2024/03/19 04:32:43;;;;;;;101.90;36.47;;;6.50;99.90;;;;;;5076266;28;20032;-67
2024/03/19 04:35:09;;;;;;;106.45;37.80;;;6.60;99.90;;;;;;5076237;28;20074;-67
2024/03/19 04:37:34;;;;;;;100.15;36.88;;;6.60;99.90;;;;;;5076166;28;20039;-67
2024/03/19 04:40:00;;;;;;;104.75;39.33;;;6.50;99.90;;;;;;5076404;28;20467;-67
2024/03/19 04:42:25;;;;;;;94.40;36.05;;;6.60;99.90;;;;;;5076109;28;20032;-67
2024/03/19 04:44:51;;;;;;;92.60;35.60;;;6.60;99.90;;;;;;5076112;28;20107;-67
2024/03/19 04:47:17;;;;;;;88.90;34.08;;;6.50;99.90;;;;;;5075934;28;20029;-67
2024/03/19 04:49:43;;;;;;;84.07;33.80;;;6.50;99.90;;;;;;5075999;28;20024;-67
2024/03/19 04:52:09;;;;;;;82.03;34.15;;;6.50;99.90;;;;;;5076230;28;20094;-67
2024/03/19 04:54:35;;;;;;;82.32;31.98;;;6.50;99.90;;;;;;5075968;28;20483;-67
2024/03/19 04:57:00;;;;;;;78.47;32.03;;;6.50;99.90;;;;;;5075918;28;20052;-67
2024/03/19 04:59:26;;;;;;;74.50;32.10;;;6.50;99.90;;;;;;5075930;28;20029;-67
2024/03/19 05:01:51;;;;;;;84.15;33.70;;;6.50;99.90;;;;;;5075686;28;20577;-67
2024/03/19 05:04:19;;;;;;;81.35;32.90;;;6.50;99.90;;;;;;5075576;28;20580;-67
2024/03/19 05:06:44;;;;;;;89.93;33.20;;;6.50;99.90;;;;;;5075519;28;20490;-67
2024/03/19 05:09:10;;;;;;;78.13;32.88;;;6.60;99.90;;;;;;5075037;28;20028;-67
2024/03/19 05:11:35;;;;;;;80.28;32.83;;;6.60;99.90;;;;;;5075453;28;20021;-67
2024/03/19 05:14:01;;;;;;;74.93;30.52;;;6.60;99.90;;;;;;5075842;28;20107;-67
2024/03/19 05:16:26;;;;;;;72.30;30.48;;;6.50;99.90;;;;;;5075594;28;20033;-67
2024/03/19 05:18:52;;;;;;;72.55;31.05;;;6.60;99.90;;;;;;5075524;28;20021;-67
2024/03/19 05:21:18;;;;;;;73.03;31.77;;;6.60;99.90;;;;;;5075589;28;20032;-67
2024/03/19 05:23:44;;;;;;;71.55;30.20;;;6.60;99.90;;;;;;5075001;28;20045;-67
2024/03/19 05:26:10;;;;;;;72.40;29.15;;;6.60;99.90;;;;;;5075354;28;20020;-67
2024/03/19 05:28:36;;;;;;;69.60;29.20;;;6.60;99.90;;;;;;5075546;28;20036;-67
2024/03/19 05:31:02;;;;;;;75.65;31.08;;;6.60;99.90;;;;;;5075289;28;20024;-67
2024/03/19 05:33:27;;;;;;;80.00;32.03;;;6.60;99.90;;;;;;5075285;28;20039;-68
2024/03/19 05:35:54;;;;;;;75.38;31.25;;;6.60;99.90;;;;;;5075240;28;20037;-67
2024/03/19 05:38:20;;;;;;;86.70;33.70;;;6.60;99.90;;;;;;5075352;28;20078;-68
2024/03/19 05:40:46;;;;;;;76.75;30.42;;;6.70;99.90;;;;;;5075355;28;20032;-67
2024/03/19 05:43:11;;;;;;;87.53;33.00;;;6.70;99.90;;;;;;5074960;28;20025;-67
2024/03/19 05:45:37;;;;;;;80.22;30.98;;;6.70;99.90;;;;;;5075134;28;20535;-67
2024/03/19 05:48:03;;;;;;;86.63;32.95;;;6.80;99.90;;;;;;5074793;28;20024;-67
2024/03/19 05:50:30;;;;;;;68.72;28.88;;;6.80;99.90;;;;;;5074957;28;20119;-67
2024/03/19 05:52:56;;;;;;;68.68;28.90;;;6.80;99.90;;;;;;5073703;28;20027;-67
2024/03/19 05:55:21;;;;;;;74.20;30.38;;;6.90;99.90;;;;;;5074835;28;20525;-67
2024/03/19 05:57:47;;;;;;;70.55;29.40;;;6.90;99.90;;;;;;5074737;28;20104;-68
2024/03/19 06:00:13;;;;;;;90.50;34.88;;;6.90;99.90;;;;;;5074691;28;20478;-67
2024/03/19 06:02:39;;;;;;;76.70;31.08;;;7.00;99.90;;;;;;5074860;28;20020;-68
2024/03/19 06:05:06;;;;;;;77.70;33.40;;;7.00;99.90;;;;;;5074242;28;20047;-68
2024/03/19 06:07:31;;;;;;;69.07;30.55;;;7.00;99.90;;;;;;5074558;28;20021;-68
2024/03/19 06:09:57;;;;;;;87.63;35.92;;;7.10;99.90;;;;;;5074710;28;20470;-68
2024/03/19 06:12:22;;;;;;;82.75;34.67;;;7.10;99.90;;;;;;5074344;28;20103;-68
2024/03/19 06:14:48;;;;;;;91.35;39.55;;;7.20;99.90;;;;;;5074365;28;20032;-68
2024/03/19 06:17:13;;;;;;;104.85;46.05;;;7.20;99.90;;;;;;5074271;28;20103;-68
2024/03/19 06:19:39;;;;;;;97.47;38.55;;;7.20;99.90;;;;;;5074149;28;20056;-68
2024/03/19 06:22:04;;;;;;;90.60;35.65;;;7.30;99.90;;;;;;5073993;28;20075;-68
2024/03/19 06:24:30;;;;;;;95.82;35.88;;;7.30;99.90;;;;;;5074127;28;20025;-68
2024/03/19 06:26:56;;;;;;;82.10;34.33;;;7.30;99.90;;;;;;5074184;28;20028;-68
2024/03/19 06:29:22;;;;;;;78.22;33.50;;;7.40;99.90;;;;;;5074187;28;20013;-68
2024/03/19 06:31:47;;;;;;;74.72;31.05;;;7.40;99.90;;;;;;5074027;28;20078;-68
2024/03/19 06:34:13;;;;;;;83.50;35.03;;;7.40;99.90;;;;;;5074069;28;20032;-69
2024/03/19 06:36:38;;;;;;;79.60;32.85;;;7.40;99.90;;;;;;5073767;28;20513;-69
2024/03/19 06:39:04;;;;;;;80.40;33.50;;;7.40;99.90;;;;;;5073421;28;20028;-69
2024/03/19 06:41:31;;;;;;;79.50;34.08;;;7.40;99.90;;;;;;5073882;28;20033;-69
2024/03/19 06:43:57;;;;;;;77.80;32.90;;;7.50;99.90;;;;;;5073847;28;20525;-69
2024/03/19 06:46:23;;;;;;;82.18;33.00;;;7.50;99.90;;;;;;5074065;28;20024;-69
2024/03/19 06:48:48;;;;;;;85.07;34.17;;;7.50;99.90;;;;;;5073646;28;20023;-69
2024/03/19 06:51:14;;;;;;;81.68;33.42;;;7.50;99.90;;;;;;5071903;28;20032;-69
2024/03/19 06:53:40;;;;;;;88.07;36.72;;;7.60;99.90;;;;;;5073082;28;20028;-69
2024/03/19 06:56:08;;;;;;;86.20;34.17;;;7.60;99.90;;;;;;5072408;28;20024;-69
2024/03/19 06:58:34;;;;;;;85.22;36.05;;;7.70;99.90;;;;;;5072066;28;20028;-69
2024/03/19 07:00:59;;;;;;;91.40;36.50;;;7.70;99.90;;;;;;5071346;28;20085;-69
2024/03/19 07:03:25;;;;;;;80.78;33.33;;;7.70;99.90;;;;;;5071897;28;20040;-68
2024/03/19 07:05:50;;;;;;;86.72;33.78;;;7.80;99.90;;;;;;5072743;28;20099;-68
2024/03/19 07:08:16;;;;;;;84.15;35.67;;;7.90;99.90;;;;;;5071988;28;20025;-68
2024/03/19 07:10:41;;;;;;;85.63;34.58;;;8.00;99.90;;;;;;5073264;28;20107;-68
2024/03/19 07:13:07;;;;;;;74.80;32.83;;;8.00;99.90;;;;;;5071644;28;20036;-68
2024/03/19 07:15:33;;;;;;;82.68;34.13;;;8.10;99.90;;;;;;5070605;28;20021;-68
2024/03/19 07:17:58;;;;;;;74.07;34.40;;;8.10;99.90;;;;;;5072247;28;20487;-68
2024/03/19 07:20:24;;;;;;;70.70;33.03;;;8.10;99.90;;;;;;5073402;28;20032;-67
2024/03/19 07:22:50;;;;;;;71.47;30.77;;;8.10;99.90;;;;;;5072272;28;20040;-68
2024/03/19 07:25:17;;;;;;;62.10;30.73;;;8.20;99.90;;;;;;5072411;28;20020;-67
2024/03/19 07:27:43;;;;;;;73.65;35.08;;;8.30;99.90;;;;;;5072213;28;20024;-68
2024/03/19 07:30:11;;;;;;;64.03;30.83;;;8.30;99.90;;;;;;5073010;28;20028;-68
2024/03/19 07:32:39;;;;;;;66.03;30.13;;;8.40;99.90;;;;;;5068651;28;20487;-68
2024/03/19 07:35:05;;;;;;;75.38;32.85;;;8.50;99.90;;;;;;5063366;28;20029;-68
2024/03/19 07:37:31;;;;;;;66.75;31.42;;;8.50;99.90;;;;;;5065973;28;20478;-67
2024/03/19 07:39:57;;;;;;;66.57;30.88;;;8.50;99.90;;;;;;5066056;28;20032;-68
2024/03/19 07:42:23;;;;;;;65.65;31.33;;;8.60;99.90;;;;;;5072118;28;20382;-67
2024/03/19 07:44:50;;;;;;;59.03;29.30;;;8.60;99.90;;;;;;5071922;28;20037;-66
2024/03/19 07:47:16;;;;;;;71.72;33.28;;;8.70;99.90;;;;;;5052424;28;20029;-65
2024/03/19 07:49:41;;;;;;;63.85;31.10;;;8.80;99.90;;;;;;5068778;28;20029;-66
2024/03/19 07:52:07;;;;;;;61.53;31.05;;;8.80;99.90;;;;;;5072830;28;20032;-65
2024/03/19 07:54:32;;;;;;;66.53;30.42;;;8.90;99.90;;;;;;5061207;28;20437;-66
2024/03/19 07:56:58;;;;;;;56.60;28.52;;;8.90;99.90;;;;;;5073264;28;20399;-67
2024/03/19 07:59:23;;;;;;;74.22;33.75;;;8.80;99.90;;;;;;5072983;28;20028;-67
2024/03/19 08:01:50;;;;;;;67.10;30.63;;;8.90;99.90;;;;;;5072565;28;20032;-71
2024/03/19 08:04:16;;;;;;;56.42;30.05;;;9.00;99.90;;;;;;5071421;28;20462;-70
2024/03/19 08:06:43;;;;;;;72.75;38.47;;;9.00;99.90;;;;;;5072121;28;20029;-70
2024/03/19 08:09:09;;;;;;;73.20;36.38;;;9.00;99.90;;;;;;5072543;28;20031;-71
2024/03/19 08:11:34;;;;;;;87.82;45.65;;;8.90;99.90;;;;;;5072980;28;20024;-70
2024/03/19 08:14:00;;;;;;;106.45;52.70;;;8.90;99.90;;;;;;5071605;28;20115;-70
2024/03/19 08:16:26;;;;;;;82.68;41.03;;;8.90;99.90;;;;;;5072582;28;20582;-71
2024/03/19 08:18:53;;;;;;;78.30;40.97;;;8.90;99.90;;;;;;5072315;28;20032;-70
2024/03/19 08:21:21;;;;;;;66.75;32.80;;;9.00;99.90;;;;;;5076696;28;20031;-70
2024/03/19 08:23:48;;;;;;;60.58;31.30;;;9.00;99.90;;;;;;5072444;28;20127;-70
2024/03/19 08:26:15;;;;;;;65.35;32.72;;;9.10;99.90;;;;;;5071117;28;20028;-71
2024/03/19 08:28:42;;;;;;;68.65;31.10;;;9.10;99.90;;;;;;5071432;28;20510;-74
2024/03/19 08:31:09;;;;;;;60.05;30.40;;;9.10;99.90;;;;;;5072154;28;20029;-73
2024/03/19 08:33:37;;;;;;;55.30;28.10;;;9.20;99.90;;;;;;5071376;28;20044;-76
2024/03/19 08:36:04;;;;;;;66.90;30.88;;;9.20;99.90;;;;;;5071856;28;20474;-72
2024/03/19 08:38:31;;;;;;;62.45;29.27;;;9.20;99.90;;;;;;5070672;28;20028;-74
2024/03/19 08:40:58;;;;;;;60.78;28.90;;;9.30;99.90;;;;;;5071657;28;20064;-72
2024/03/19 08:43:24;;;;;;;67.10;30.45;;;9.30;99.90;;;;;;5073726;28;20494;-74
2024/03/19 08:45:50;;;;;;;62.58;30.50;;;9.30;99.90;;;;;;5075463;28;20154;-74
2024/03/19 08:48:15;;;;;;;75.68;32.00;;;9.40;99.90;;;;;;5073839;28;20028;-74
2024/03/19 08:50:41;;;;;;;61.33;30.25;;;9.50;99.90;;;;;;5075791;28;20550;-73
2024/03/19 08:53:07;;;;;;;57.78;31.15;;;9.60;99.90;;;;;;5075214;28;20588;-74
2024/03/19 08:55:36;;;;;;;59.10;28.85;;;9.70;99.90;;;;;;5074850;28;20024;-73
2024/03/19 08:58:02;;;;;;;75.30;35.60;;;9.70;99.90;;;;;;5075413;28;20045;-74
2024/03/19 09:00:27;;;;;;;58.92;29.80;;;9.80;99.90;;;;;;5073944;28;20029;-74
2024/03/19 09:02:53;;;;;;;57.22;30.15;;;10.00;99.90;;;;;;5073769;28;20081;-70
2024/03/19 09:05:19;;;;;;;59.55;30.75;;;10.10;99.90;;;;;;5077379;28;20039;-72
2024/03/19 09:07:44;;;;;;;57.78;29.65;;;10.30;99.90;;;;;;5072705;28;20067;-74
2024/03/19 09:10:10;;;;;;;50.05;27.20;;;10.40;99.90;;;;;;5073591;28;20103;-73
2024/03/19 09:12:36;;;;;;;46.53;25.20;;;10.60;99.90;;;;;;5075128;28;20059;-74
2024/03/19 09:15:04;;;;;;;46.90;25.25;;;10.90;99.90;;;;;;5075681;28;20056;-74
2024/03/19 09:17:30;;;;;;;52.13;23.80;;;11.20;99.90;;;;;;5075540;28;20028;-72
2024/03/19 09:19:55;;;;;;;45.20;24.15;;;11.40;99.90;;;;;;5074952;28;20347;-73
2024/03/19 09:22:21;;;;;;;44.85;23.85;;;11.70;99.90;;;;;;5074737;28;20045;-74
2024/03/19 09:24:46;;;;;;;40.42;23.02;;;12.00;99.90;;;;;;5074049;28;20066;-76
2024/03/19 09:27:14;;;;;;;44.90;21.85;;;12.50;99.90;;;;;;5075876;28;20146;-72
2024/03/19 09:29:39;;;;;;;38.40;19.98;;;13.30;99.90;;;;;;5074971;28;20035;-68
2024/03/19 09:32:06;;;;;;;40.47;20.85;;;13.60;99.90;;;;;;5074847;28;20457;-69
2024/03/19 09:34:31;;;;;;;36.47;19.38;;;14.00;99.90;;;;;;5074697;28;20034;-70
2024/03/19 09:36:57;;;;;;;36.30;20.27;;;14.00;99.90;;;;;;5074510;28;20040;-71
2024/03/19 09:39:23;;;;;;;38.83;20.88;;;14.40;99.90;;;;;;5075121;28;20037;-71
2024/03/19 09:42:16;;;;;;;35.55;19.27;;;14.80;99.90;;;;;;5074520;28;20453;-70
2024/03/19 09:44:43;;;;;;;37.75;19.52;;;15.20;99.90;;;;;;5074798;28;20535;-69
2024/03/19 09:47:09;;;;;;;35.03;19.98;;;15.50;27.10;;;;;;5072507;28;20075;-70
2024/03/19 09:49:36;;;;;;;37.53;19.83;;;15.40;3.20;;;;;;5069309;28;20513;-69
2024/03/19 09:52:03;;;;;;;37.15;20.20;;;15.80;1.00;;;;;;5067522;28;20050;-70
2024/03/19 09:54:29;;;;;;;38.25;21.08;;;15.80;1.00;;;;;;5074014;28;20033;-69
2024/03/19 09:56:57;;;;;;;32.78;20.05;;;16.10;99.90;;;;;;5074415;28;20036;-68
2024/03/19 09:59:25;;;;;;;39.15;20.52;;;16.50;99.90;;;;;;5074626;28;20120;-70
2024/03/19 10:01:52;;;;;;;39.75;20.65;;;16.50;45.00;;;;;;5074881;28;20089;-71
2024/03/19 10:04:19;;;;;;;32.97;19.05;;;16.70;1.00;;;;;;5077188;28;20040;-71
2024/03/19 10:06:45;;;;;;;37.55;20.63;;;16.80;1.00;;;;;;5074750;28;20060;-71
2024/03/19 10:09:11;;;;;;;36.13;19.58;;;17.50;1.00;;;;;;5075205;28;20059;-72
2024/03/19 10:11:37;;;;;;;32.08;19.00;;;18.10;1.00;;;;;;5075384;28;20040;-73
2024/03/19 10:14:03;;;;;;;31.55;18.70;;;17.50;1.00;;;;;;5076090;28;20471;-72
2024/03/19 10:16:30;;;;;;;35.17;18.60;;;17.30;1.00;;;;;;5079139;28;20114;-71
2024/03/19 10:18:56;;;;;;;38.10;20.92;;;17.30;1.00;;;;;;5076183;28;20032;-71
2024/03/19 10:21:23;;;;;;;35.15;20.08;;;16.80;99.90;;;;;;5076619;28;20165;-70
2024/03/19 10:23:49;;;;;;;33.28;18.38;;;17.00;99.90;;;;;;5076890;28;20033;-72
2024/03/19 10:26:16;;;;;;;32.88;19.20;;;17.30;99.90;;;;;;5076078;28;20033;-71
2024/03/19 10:28:43;;;;;;;34.42;17.10;;;17.20;99.90;;;;;;5072594;28;20431;-71
2024/03/19 10:31:10;;;;;;;33.28;17.83;;;17.40;66.50;;;;;;5072370;28;20032;-74
2024/03/19 10:33:37;;;;;;;33.40;18.35;;;17.80;99.90;;;;;;5075023;28;20043;-74
2024/03/19 10:36:03;;;;;;;31.92;18.40;;;17.70;99.90;;;;;;5073060;28;20040;-75
2024/03/19 10:38:29;;;;;;;34.63;18.08;;;18.30;1.00;;;;;;5073212;28;20036;-77
2024/03/19 10:40:56;;;;;;;28.15;17.58;;;18.40;99.90;;;;;;5073999;28;20108;-75
2024/03/19 10:43:24;;;;;;;31.15;17.70;;;18.50;99.90;;;;;;5071483;28;20402;-75
2024/03/19 10:45:50;;;;;;;31.90;17.10;;;18.70;1.00;;;;;;5071973;28;20611;-75
2024/03/19 10:48:16;;;;;;;30.23;15.95;;;18.50;99.90;;;;;;5071256;28;20020;-74
2024/03/19 10:50:45;;;;;;;33.75;16.55;;;18.20;73.50;;;;;;5073753;28;20041;-73
2024/03/19 10:53:17;;;;;;;36.90;16.75;;;18.30;1.00;;;;;;5069426;28;20024;-74
2024/03/19 10:55:45;;;;;;;27.53;14.70;;;18.40;59.60;;;;;;5073350;28;20469;-74
2024/03/19 10:58:15;;;;;;;28.83;15.48;;;18.40;99.90;;;;;;5073270;28;20025;-75
2024/03/19 11:00:42;;;;;;;31.10;15.45;;;19.00;1.00;;;;;;5072978;28;20428;-74
2024/03/19 11:03:15;;;;;;;32.13;14.20;;;19.20;35.30;;;;;;5072775;28;20103;-72
2024/03/19 11:05:49;;;;;;;31.75;17.63;;;18.80;99.90;;;;;;5071282;28;20073;-71
2024/03/19 11:08:15;;;;;;;30.90;17.50;;;18.60;99.90;;;;;;5067589;28;20158;-73
2024/03/19 11:10:41;;;;;;;32.83;17.65;;;18.00;1.00;;;;;;5071555;28;20677;-73
2024/03/19 11:13:11;;;;;;;29.10;15.30;;;17.80;99.90;;;;;;5070359;28;20021;-74
2024/03/19 11:15:40;;;;;;;30.63;15.50;;;17.80;99.90;;;;;;5068488;28;20422;-70
2024/03/19 11:20:51;;;;;;;32.75;16.85;;;17.50;99.90;;;;;;5111451;27;20376;-71
2024/03/19 11:23:23;;;;;;;25.13;13.43;;;17.50;99.90;;;;;;5121622;27;20019;-71
2024/03/19 11:25:50;;;;;;;21.13;11.95;;;17.50;99.90;;;;;;5119199;27;20027;-69
2024/03/19 11:28:27;;;;;;;24.15;14.32;;;17.50;99.90;;;;;;5104508;28;20016;-70
2024/03/19 11:30:57;;;;;;;26.63;12.98;;;17.40;29.00;;;;;;5095282;28;20039;-70
2024/03/19 11:33:24;;;;;;;25.15;13.15;;;17.00;99.90;;;;;;5103017;28;20225;-72
2024/03/19 11:35:51;;;;;;;24.02;11.20;;;17.10;99.90;;;;;;5109394;28;20024;-70
2024/03/19 11:38:18;;;;;;;26.60;12.40;;;17.00;99.90;;;;;;5108358;27;20510;-69
2024/03/19 11:40:45;;;;;;;24.17;12.00;;;17.20;34.60;;;;;;5102937;28;20023;-72
2024/03/19 11:43:12;;;;;;;25.70;12.05;;;17.30;99.90;;;;;;5109559;28;20039;-72
2024/03/19 11:45:40;;;;;;;25.27;12.52;;;17.20;1.00;;;;;;5109375;27;20489;-72
2024/03/19 11:48:06;;;;;;;26.23;12.18;;;17.40;32.50;;;;;;5108694;28;20039;-72
2024/03/19 11:50:31;;;;;;;24.98;11.43;;;17.50;1.00;;;;;;5109593;28;20031;-72
2024/03/19 11:52:59;;;;;;;21.27;10.85;;;17.70;1.00;;;;;;5110373;28;20512;-72
2024/03/19 11:55:25;;;;;;;19.70;10.20;;;17.80;99.90;;;;;;5109345;28;20115;-73
2024/03/19 11:57:51;;;;;;;19.02;10.05;;;17.70;76.90;;;;;;5109214;28;20039;-72
2024/03/19 12:00:17;;;;;;;24.35;12.07;;;17.40;99.90;;;;;;5109466;28;20020;-72
2024/03/19 12:02:43;;;;;;;18.65;10.32;;;17.70;99.90;;;;;;5106853;28;20481;-73
2024/03/19 12:05:13;;;;;;;20.77;10.82;;;18.00;1.00;;;;;;5108366;28;20020;-73
2024/03/19 12:07:43;;;;;;;22.17;11.18;;;18.10;99.90;;;;;;5101116;28;20028;-73
2024/03/19 12:10:15;;;;;;;20.02;11.55;;;18.20;34.80;;;;;;5109732;28;20093;-74
2024/03/19 12:12:41;;;;;;;21.25;11.13;;;18.30;1.00;;;;;;5113032;28;20058;-74
2024/03/19 12:15:10;;;;;;;21.38;9.93;;;18.50;99.90;;;;;;5107814;28;20451;-73
2024/03/19 12:17:36;;;;;;;22.58;11.65;;;18.40;99.90;;;;;;5106834;28;20144;-72
2024/03/19 12:20:04;;;;;;;19.85;9.02;;;18.00;99.90;;;;;;5108647;28;20492;-71
2024/03/19 12:22:30;;;;;;;18.83;8.13;;;17.50;82.30;;;;;;5102126;28;20028;-72
2024/03/19 12:24:56;;;;;;;15.23;7.65;;;17.60;5.70;;;;;;5105102;28;20028;-74
2024/03/19 12:27:22;;;;;;;22.58;11.13;;;17.90;1.00;;;;;;5113581;28;20420;-74
2024/03/19 12:29:47;;;;;;;19.13;10.55;;;18.20;99.90;;;;;;5108637;28;20030;-74
2024/03/19 12:32:15;;;;;;;15.60;8.57;;;18.40;1.00;;;;;;5096839;27;20035;-72